AAL2901 KEWR-KCLT
Flight info
| Callsign | AAL2901 |
|---|---|
| Flight time | 0h 43m |
| Altitude | 32000 |
| Route | BIGGY Q75 GVE AIROW CHSLY6 |
| Aircraft | A320/M-SDE3FGHIRWY/LB1 |
Departure
| Time | 2026-04-25 21:54 |
|---|---|
| Airport | Newark Liberty International Airport (KEWR) |
Arrival
| Time | 2026-04-25 22:38 |
|---|---|
| Airport | Charlotte Douglas International Airport (KCLT) |
| Time | Latitude | Longitude | Altitude | Speed | Heading |
|---|---|---|---|---|---|
| 2026-04-25 20:11 | 40.68314 | -74.18650 | 22 ft | 0 kts | 336° |
| 2026-04-25 21:29 | 40.68309 | -74.18647 | 22 ft | 4 kts | 337° |
| 2026-04-25 21:29 | 40.68284 | -74.18633 | 22 ft | 4 kts | 337° |
| 2026-04-25 21:30 | 40.68264 | -74.18623 | 24 ft | 4 kts | 347° |
| 2026-04-25 21:30 | 40.68238 | -74.18621 | 23 ft | 4 kts | 10° |
| 2026-04-25 21:30 | 40.68215 | -74.18628 | 22 ft | 2 kts | 12° |
| 2026-04-25 21:30 | 40.68199 | -74.18632 | 22 ft | 4 kts | 12° |
| 2026-04-25 21:31 | 40.68169 | -74.18641 | 22 ft | 4 kts | 12° |
| 2026-04-25 21:31 | 40.68164 | -74.18642 | 22 ft | 0 kts | 12° |
| 2026-04-25 21:40 | 40.68167 | -74.18642 | 22 ft | 3 kts | 12° |
| 2026-04-25 21:40 | 40.68191 | -74.18634 | 25 ft | 4 kts | 14° |
| 2026-04-25 21:40 | 40.68214 | -74.18620 | 23 ft | 4 kts | 31° |
| 2026-04-25 21:41 | 40.68236 | -74.18593 | 23 ft | 6 kts | 51° |
| 2026-04-25 21:41 | 40.68243 | -74.18577 | 23 ft | 2 kts | 62° |
| 2026-04-25 21:41 | 40.68250 | -74.18544 | 24 ft | 4 kts | 79° |
| 2026-04-25 21:41 | 40.68250 | -74.18501 | 22 ft | 5 kts | 93° |
| 2026-04-25 21:42 | 40.68247 | -74.18440 | 22 ft | 8 kts | 95° |
| 2026-04-25 21:42 | 40.68242 | -74.18364 | 22 ft | 9 kts | 95° |
| 2026-04-25 21:42 | 40.68237 | -74.18284 | 22 ft | 9 kts | 95° |
| 2026-04-25 21:42 | 40.68232 | -74.18199 | 22 ft | 9 kts | 90° |
| 2026-04-25 21:43 | 40.68239 | -74.18111 | 22 ft | 10 kts | 92° |
| 2026-04-25 21:43 | 40.68234 | -74.18019 | 22 ft | 10 kts | 94° |
| 2026-04-25 21:43 | 40.68212 | -74.17930 | 22 ft | 11 kts | 118° |
| 2026-04-25 21:43 | 40.68199 | -74.17898 | 22 ft | 0 kts | 116° |
| 2026-04-25 21:45 | 40.68176 | -74.17836 | 22 ft | 7 kts | 116° |
| 2026-04-25 21:45 | 40.68148 | -74.17762 | 22 ft | 10 kts | 123° |
| 2026-04-25 21:46 | 40.68099 | -74.17750 | 22 ft | 6 kts | 194° |
| 2026-04-25 21:46 | 40.68063 | -74.17772 | 22 ft | 6 kts | 206° |
| 2026-04-25 21:46 | 40.68024 | -74.17797 | 23 ft | 7 kts | 206° |
| 2026-04-25 21:46 | 40.67972 | -74.17830 | 24 ft | 9 kts | 206° |
| 2026-04-25 21:47 | 40.67919 | -74.17864 | 24 ft | 8 kts | 206° |
| 2026-04-25 21:47 | 40.67867 | -74.17897 | 22 ft | 8 kts | 206° |
| 2026-04-25 21:47 | 40.67815 | -74.17931 | 22 ft | 8 kts | 206° |
| 2026-04-25 21:47 | 40.67761 | -74.17964 | 22 ft | 9 kts | 205° |
| 2026-04-25 21:48 | 40.67707 | -74.17999 | 22 ft | 9 kts | 207° |
| 2026-04-25 21:48 | 40.67654 | -74.18033 | 22 ft | 8 kts | 205° |
| 2026-04-25 21:48 | 40.67610 | -74.18049 | 22 ft | 1 kts | 171° |
| 2026-04-25 21:52 | 40.67605 | -74.18046 | 22 ft | 2 kts | 157° |
| 2026-04-25 21:52 | 40.67589 | -74.18028 | 23 ft | 5 kts | 132° |
| 2026-04-25 21:53 | 40.67568 | -74.17988 | 24 ft | 6 kts | 117° |
| 2026-04-25 21:53 | 40.67573 | -74.17934 | 23 ft | 6 kts | 59° |
| 2026-04-25 21:53 | 40.67616 | -74.17898 | 25 ft | 13 kts | 26° |
| 2026-04-25 21:53 | 40.67898 | -74.17717 | 20 ft | 77 kts | 26° |
| 2026-04-25 21:54 | 40.68547 | -74.17302 | 25 ft | 128 kts | 26° |
| 2026-04-25 21:54 | 40.69475 | -74.16704 | 42 ft | 166 kts | 29° |
| 2026-04-25 21:54 | 40.70524 | -74.16014 | 523 ft | 170 kts | 28° |
| 2026-04-25 21:54 | 40.71470 | -74.15112 | 1160 ft | 168 kts | 44° |
| 2026-04-25 21:55 | 40.72326 | -74.14045 | 1774 ft | 169 kts | 47° |
| 2026-04-25 21:55 | 40.73206 | -74.12913 | 2046 ft | 187 kts | 46° |
| 2026-04-25 21:55 | 40.74194 | -74.11641 | 2294 ft | 209 kts | 47° |
| 2026-04-25 21:55 | 40.75323 | -74.10299 | 2604 ft | 234 kts | 37° |
| 2026-04-25 21:56 | 40.76860 | -74.09318 | 3054 ft | 257 kts | 16° |
| 2026-04-25 21:56 | 40.78070 | -74.09110 | 3537 ft | 264 kts | 360° |
| 2026-04-25 21:56 | 40.80421 | -74.10112 | 4593 ft | 274 kts | 322° |
| 2026-04-25 21:56 | 40.81705 | -74.12198 | 5466 ft | 276 kts | 291° |
| 2026-04-25 21:57 | 40.82048 | -74.14465 | 6225 ft | 275 kts | 265° |
| 2026-04-25 21:57 | 40.81548 | -74.16913 | 7053 ft | 272 kts | 239° |
| 2026-04-25 21:57 | 40.80554 | -74.18986 | 7890 ft | 273 kts | 236° |
| 2026-04-25 21:57 | 40.79516 | -74.21090 | 8738 ft | 275 kts | 236° |
| 2026-04-25 21:58 | 40.78350 | -74.23460 | 9671 ft | 277 kts | 237° |
| 2026-04-25 21:58 | 40.77407 | -74.25383 | 10362 ft | 279 kts | 238° |
| 2026-04-25 21:58 | 40.76314 | -74.27614 | 10589 ft | 301 kts | 238° |
| 2026-04-25 21:58 | 40.75143 | -74.30015 | 10882 ft | 318 kts | 238° |
| 2026-04-25 21:59 | 40.73938 | -74.32487 | 11499 ft | 322 kts | 238° |
| 2026-04-25 21:59 | 40.72719 | -74.34982 | 12189 ft | 325 kts | 239° |
| 2026-04-25 21:59 | 40.71493 | -74.37491 | 12877 ft | 327 kts | 239° |
| 2026-04-25 22:00 | 40.68265 | -74.44086 | 14457 ft | 336 kts | 240° |
| 2026-04-25 22:00 | 40.64294 | -74.52162 | 16221 ft | 345 kts | 240° |
| 2026-04-25 22:00 | 40.58944 | -74.63035 | 18317 ft | 359 kts | 241° |
| 2026-04-25 22:00 | 40.53358 | -74.74350 | 20522 ft | 372 kts | 241° |
| 2026-04-25 22:01 | 40.47796 | -74.85544 | 22506 ft | 382 kts | 241° |
| 2026-04-25 22:01 | 40.41446 | -74.98025 | 24367 ft | 397 kts | 233° |
| 2026-04-25 22:01 | 40.33989 | -75.08437 | 25912 ft | 405 kts | 231° |
| 2026-04-25 22:01 | 40.28887 | -75.15614 | 26896 ft | 408 kts | 231° |
| 2026-04-25 22:02 | 40.17967 | -75.30835 | 28866 ft | 412 kts | 230° |
| 2026-04-25 22:02 | 40.10481 | -75.41264 | 30461 ft | 405 kts | 231° |
| 2026-04-25 22:02 | 40.02870 | -75.51833 | 32144 ft | 399 kts | 231° |
| 2026-04-25 22:02 | 39.95279 | -75.62291 | 32009 ft | 398 kts | 230° |
| 2026-04-25 22:03 | 39.87868 | -75.73094 | 31861 ft | 398 kts | 234° |
| 2026-04-25 22:03 | 39.81166 | -75.84100 | 31882 ft | 397 kts | 234° |
| 2026-04-25 22:03 | 39.67250 | -76.06191 | 31899 ft | 390 kts | 234° |
| 2026-04-25 22:04 | 39.53139 | -76.28221 | 31977 ft | 387 kts | 233° |
| 2026-04-25 22:04 | 39.38161 | -76.49433 | 32139 ft | 392 kts | 228° |
| 2026-04-25 22:05 | 39.22583 | -76.69629 | 32059 ft | 391 kts | 229° |
| 2026-04-25 22:05 | 39.14410 | -76.80243 | 31972 ft | 397 kts | 229° |
| 2026-04-25 22:06 | 39.01337 | -76.97110 | 31999 ft | 399 kts | 229° |
| 2026-04-25 22:06 | 38.85398 | -77.17602 | 31999 ft | 401 kts | 228° |
| 2026-04-25 22:07 | 38.72243 | -77.34372 | 31970 ft | 401 kts | 227° |
| 2026-04-25 22:07 | 38.52814 | -77.56739 | 31960 ft | 402 kts | 226° |
| 2026-04-25 22:08 | 38.36066 | -77.75924 | 31954 ft | 402 kts | 225° |
| 2026-04-25 22:08 | 38.19383 | -77.94925 | 31949 ft | 403 kts | 225° |
| 2026-04-25 22:09 | 38.02655 | -78.13826 | 31945 ft | 402 kts | 225° |
| 2026-04-25 22:09 | 37.87731 | -78.34697 | 31929 ft | 399 kts | 231° |
| 2026-04-25 22:10 | 37.72907 | -78.55678 | 31927 ft | 400 kts | 231° |
| 2026-04-25 22:10 | 37.58050 | -78.76564 | 31920 ft | 401 kts | 230° |
| 2026-04-25 22:11 | 37.43013 | -78.97577 | 31924 ft | 401 kts | 230° |
| 2026-04-25 22:11 | 37.37229 | -79.05601 | 31929 ft | 401 kts | 230° |
| 2026-04-25 22:12 | 37.33512 | -79.10759 | 31927 ft | 401 kts | 230° |
| 2026-04-25 22:12 | 37.30380 | -79.15102 | 31933 ft | 401 kts | 230° |
| 2026-04-25 22:13 | 37.26024 | -79.21131 | 31930 ft | 401 kts | 230° |
| 2026-04-25 22:13 | 37.21748 | -79.25651 | 31933 ft | 405 kts | 219° |
| 2026-04-25 22:14 | 37.17161 | -79.29770 | 31930 ft | 405 kts | 219° |
| 2026-04-25 22:14 | 37.11149 | -79.35187 | 31927 ft | 405 kts | 219° |
| 2026-04-25 22:15 | 36.92652 | -79.51358 | 31925 ft | 406 kts | 217° |
| 2026-04-25 22:16 | 36.64591 | -79.74873 | 30757 ft | 391 kts | 217° |
| 2026-04-25 22:16 | 36.55678 | -79.82312 | 28823 ft | 380 kts | 217° |
| 2026-04-25 22:16 | 36.50624 | -79.86520 | 27872 ft | 371 kts | 217° |
| 2026-04-25 22:16 | 36.48480 | -79.88300 | 27421 ft | 370 kts | 217° |
| 2026-04-25 22:17 | 36.46342 | -79.90071 | 26978 ft | 368 kts | 216° |
| 2026-04-25 22:17 | 36.44185 | -79.91857 | 26568 ft | 366 kts | 217° |
| 2026-04-25 22:17 | 36.42076 | -79.93601 | 26166 ft | 364 kts | 216° |
| 2026-04-25 22:17 | 36.39964 | -79.95345 | 25777 ft | 363 kts | 217° |
| 2026-04-25 22:18 | 36.37872 | -79.97077 | 25389 ft | 360 kts | 217° |
| 2026-04-25 22:18 | 36.35790 | -79.98800 | 24988 ft | 359 kts | 217° |
| 2026-04-25 22:18 | 36.29844 | -80.03724 | 23760 ft | 354 kts | 217° |
| 2026-04-25 22:18 | 36.21732 | -80.10402 | 22055 ft | 346 kts | 217° |
| 2026-04-25 22:19 | 36.13661 | -80.17027 | 20239 ft | 340 kts | 216° |
| 2026-04-25 22:19 | 36.05859 | -80.23441 | 18488 ft | 334 kts | 216° |
| 2026-04-25 22:19 | 35.99936 | -80.28288 | 17151 ft | 332 kts | 216° |
| 2026-04-25 22:19 | 35.98006 | -80.29863 | 16740 ft | 329 kts | 216° |
| 2026-04-25 22:20 | 35.96111 | -80.31412 | 16382 ft | 326 kts | 216° |
| 2026-04-25 22:20 | 35.94227 | -80.32952 | 15940 ft | 324 kts | 216° |
| 2026-04-25 22:20 | 35.92348 | -80.34485 | 15508 ft | 323 kts | 215° |
| 2026-04-25 22:20 | 35.90478 | -80.36012 | 15079 ft | 322 kts | 215° |
| 2026-04-25 22:21 | 35.88613 | -80.37534 | 14654 ft | 321 kts | 214° |
| 2026-04-25 22:21 | 35.86759 | -80.39047 | 14324 ft | 316 kts | 215° |
| 2026-04-25 22:21 | 35.84960 | -80.40518 | 14188 ft | 305 kts | 214° |
| 2026-04-25 22:21 | 35.83198 | -80.41953 | 13942 ft | 302 kts | 216° |
| 2026-04-25 22:22 | 35.81490 | -80.43466 | 13683 ft | 299 kts | 218° |
| 2026-04-25 22:22 | 35.79863 | -80.45019 | 13298 ft | 295 kts | 219° |
| 2026-04-25 22:22 | 35.78273 | -80.46594 | 12883 ft | 290 kts | 220° |
| 2026-04-25 22:22 | 35.76698 | -80.48158 | 12482 ft | 293 kts | 220° |
| 2026-04-25 22:23 | 35.75077 | -80.49652 | 12079 ft | 292 kts | 211° |
| 2026-04-25 22:23 | 35.73222 | -80.50676 | 11752 ft | 292 kts | 199° |
| 2026-04-25 22:23 | 35.71290 | -80.51418 | 11301 ft | 290 kts | 198° |
| 2026-04-25 22:23 | 35.69362 | -80.52155 | 10874 ft | 288 kts | 199° |
| 2026-04-25 22:24 | 35.67452 | -80.52896 | 10431 ft | 289 kts | 198° |
| 2026-04-25 22:24 | 35.65525 | -80.53644 | 10072 ft | 290 kts | 199° |
| 2026-04-25 22:24 | 35.63608 | -80.54385 | 9667 ft | 289 kts | 199° |
| 2026-04-25 22:24 | 35.61702 | -80.55121 | 9421 ft | 284 kts | 199° |
| 2026-04-25 22:25 | 35.59849 | -80.55843 | 9294 ft | 274 kts | 202° |
| 2026-04-25 22:25 | 35.58274 | -80.57020 | 9078 ft | 259 kts | 225° |
| 2026-04-25 22:25 | 35.57269 | -80.58808 | 8791 ft | 256 kts | 248° |
| 2026-04-25 22:25 | 35.56918 | -80.60956 | 8404 ft | 259 kts | 268° |
| 2026-04-25 22:26 | 35.56905 | -80.63163 | 8045 ft | 260 kts | 268° |
| 2026-04-25 22:26 | 35.56885 | -80.65359 | 7804 ft | 254 kts | 268° |
| 2026-04-25 22:26 | 35.56859 | -80.67522 | 7265 ft | 253 kts | 268° |
| 2026-04-25 22:26 | 35.56831 | -80.69669 | 6821 ft | 252 kts | 268° |
| 2026-04-25 22:27 | 35.56803 | -80.71817 | 6557 ft | 250 kts | 268° |
| 2026-04-25 22:27 | 35.56775 | -80.73956 | 6204 ft | 250 kts | 268° |
| 2026-04-25 22:27 | 35.56749 | -80.76062 | 6091 ft | 242 kts | 268° |
| 2026-04-25 22:27 | 35.56634 | -80.78094 | 6006 ft | 228 kts | 252° |
| 2026-04-25 22:28 | 35.56026 | -80.79841 | 6021 ft | 221 kts | 244° |
| 2026-04-25 22:28 | 35.55367 | -80.81538 | 6025 ft | 215 kts | 244° |
| 2026-04-25 22:28 | 35.54740 | -80.83140 | 6021 ft | 203 kts | 244° |
| 2026-04-25 22:28 | 35.54136 | -80.84679 | 6046 ft | 194 kts | 244° |
| 2026-04-25 22:29 | 35.53578 | -80.86104 | 6033 ft | 177 kts | 244° |
| 2026-04-25 22:29 | 35.53047 | -80.87462 | 6018 ft | 173 kts | 244° |
| 2026-04-25 22:29 | 35.52553 | -80.88726 | 6011 ft | 156 kts | 244° |
| 2026-04-25 22:30 | 35.51643 | -80.91046 | 6022 ft | 150 kts | 244° |
| 2026-04-25 22:30 | 35.51194 | -80.92194 | 6024 ft | 149 kts | 244° |
| 2026-04-25 22:30 | 35.50745 | -80.93342 | 6025 ft | 149 kts | 244° |
| 2026-04-25 22:30 | 35.50409 | -80.94078 | 6026 ft | 150 kts | 235° |
| 2026-04-25 22:31 | 35.49387 | -80.95226 | 6024 ft | 151 kts | 213° |
| 2026-04-25 22:31 | 35.48386 | -80.95647 | 5862 ft | 158 kts | 187° |
| 2026-04-25 22:31 | 35.47283 | -80.95664 | 5599 ft | 159 kts | 184° |
| 2026-04-25 22:31 | 35.46185 | -80.95622 | 5362 ft | 157 kts | 182° |
| 2026-04-25 22:32 | 35.45102 | -80.95550 | 5149 ft | 156 kts | 181° |
| 2026-04-25 22:32 | 35.44020 | -80.95465 | 4939 ft | 155 kts | 181° |
| 2026-04-25 22:32 | 35.42942 | -80.95376 | 4734 ft | 155 kts | 181° |
| 2026-04-25 22:32 | 35.41866 | -80.95285 | 4527 ft | 155 kts | 180° |
| 2026-04-25 22:33 | 35.40790 | -80.95192 | 4321 ft | 155 kts | 180° |
| 2026-04-25 22:33 | 35.39714 | -80.95100 | 4114 ft | 155 kts | 180° |
| 2026-04-25 22:33 | 35.38637 | -80.95007 | 3904 ft | 155 kts | 180° |
| 2026-04-25 22:33 | 35.37560 | -80.94914 | 3705 ft | 155 kts | 180° |
| 2026-04-25 22:34 | 35.36486 | -80.94822 | 3501 ft | 155 kts | 179° |
| 2026-04-25 22:34 | 35.35409 | -80.94729 | 3290 ft | 155 kts | 179° |
| 2026-04-25 22:34 | 35.34334 | -80.94637 | 3087 ft | 155 kts | 179° |
| 2026-04-25 22:34 | 35.33257 | -80.94544 | 2878 ft | 155 kts | 179° |
| 2026-04-25 22:35 | 35.32176 | -80.94451 | 2671 ft | 156 kts | 179° |
| 2026-04-25 22:35 | 35.31093 | -80.94357 | 2469 ft | 157 kts | 179° |
| 2026-04-25 22:35 | 35.30004 | -80.94264 | 2246 ft | 156 kts | 178° |
| 2026-04-25 22:35 | 35.28915 | -80.94170 | 2049 ft | 157 kts | 178° |
| 2026-04-25 22:36 | 35.27832 | -80.94076 | 1864 ft | 156 kts | 178° |
| 2026-04-25 22:36 | 35.26757 | -80.93982 | 1647 ft | 154 kts | 177° |
| 2026-04-25 22:36 | 35.26037 | -80.93908 | 1512 ft | 154 kts | 177° |
| 2026-04-25 22:36 | 35.24630 | -80.93796 | 1250 ft | 152 kts | 180° |
| 2026-04-25 22:37 | 35.23577 | -80.93729 | 996 ft | 150 kts | 176° |
| 2026-04-25 22:37 | 35.22535 | -80.93625 | 796 ft | 150 kts | 177° |
| 2026-04-25 22:37 | 35.21854 | -80.93569 | 740 ft | 135 kts | 176° |
| 2026-04-25 22:37 | 35.20892 | -80.93485 | 734 ft | 72 kts | 176° |
| 2026-04-25 22:38 | 35.20622 | -80.93470 | 735 ft | 45 kts | 186° |
| 2026-04-25 22:38 | 35.20498 | -80.93570 | 732 ft | 10 kts | 308° |
| 2026-04-25 22:38 | 35.20524 | -80.93583 | 733 ft | 4 kts | 346° |
| 2026-04-25 22:38 | 35.20559 | -80.93588 | 733 ft | 6 kts | 355° |
| 2026-04-25 22:39 | 35.20606 | -80.93592 | 732 ft | 8 kts | 356° |
| 2026-04-25 22:39 | 35.20666 | -80.93597 | 733 ft | 10 kts | 356° |
| 2026-04-25 22:39 | 35.20739 | -80.93604 | 733 ft | 12 kts | 356° |
| 2026-04-25 22:39 | 35.20828 | -80.93612 | 733 ft | 14 kts | 355° |